Terminal Aerodrome Forecast
Issued by NWS Portland, ME

Home | Current Version | Previous Version | Text Only | Print | Product List | Glossary On
Versions: 1 2 3 4 5 6 7 8 9 10 11 12 13 14 15 16 17 18 19 20 21 22
000
FTUS41 KGYX 301122
TAFPWM
TAF
KPWM 301122Z 3012/3112 VRB03KT 3SM -SN BR OVC020
      TEMPO 3012/3014 1SM -SN BR OVC008
     FM301400 VRB03KT 1SM -SN BR OVC007
     FM301500 13008KT 1/2SM SN OVC004
     FM310300 33017G28KT 3SM -SN BLSN OVC025=

USA.gov is the U.S. government's official web portal to all federal, state and local government web resources and services.